Time;durP1;ratioP1;P1;durP2;ratioP2;P2;SDS_P1;SDS_P2;PMS_P1;PMS_P2;Temp;Humidity;BMP_temperature;BMP_pressure;BME280_temperature;BME280_humidity;BME280_pressure;Samples;Min_cycle;Max_cycle;Signal;HPM_P1;HPM_P2
2023/07/06 00:01:30;;;;;;;1.77;1.55;;;;;;;20.36;85.50;99516.16;5093728;28;20048;-65
2023/07/06 00:03:59;;;;;;;0.95;0.82;;;;;;;20.35;85.48;99511.03;5093936;28;20036;-65
2023/07/06 00:06:28;;;;;;;0.50;0.50;;;;;;;20.35;85.45;99509.28;5093643;28;20561;-66
2023/07/06 00:08:59;;;;;;;0.50;0.50;;;;;;;20.41;84.99;99508.19;5093586;28;20036;-65
2023/07/06 00:11:34;;;;;;;1.77;1.25;;;;;;;20.45;84.88;99504.53;5093716;28;20051;-66
2023/07/06 00:14:03;;;;;;;0.47;0.47;;;;;;;20.42;84.36;99504.69;5093479;28;20055;-66
2023/07/06 00:16:32;;;;;;;;;;;;;;;20.35;84.44;99498.06;5094336;28;20122;-65
2023/07/06 00:19:01;;;;;;;0.50;0.50;;;;;;;20.31;84.42;99491.31;5093647;28;19966;-65
2023/07/06 00:21:31;;;;;;;0.60;0.60;;;;;;;20.31;84.26;99491.31;5093486;28;20040;-65
2023/07/06 00:24:01;;;;;;;1.17;0.93;;;;;;;20.38;83.83;99492.75;5093365;28;20048;-65
2023/07/06 00:26:30;;;;;;;0.57;0.57;;;;;;;20.27;83.78;99489.78;5096141;28;20101;-66
2023/07/06 00:28:59;;;;;;;1.57;1.37;;;;;;;20.09;83.73;99486.19;5097530;28;20090;-67
2023/07/06 00:31:40;;;;;;;0.43;0.43;;;;;;;20.01;84.03;99486.50;5097559;28;20576;-67
2023/07/06 00:34:10;;;;;;;0.63;0.63;;;;;;;19.95;83.81;99489.38;5097476;28;20048;-66
2023/07/06 00:36:38;;;;;;;0.50;0.50;;;;;;;19.96;84.03;99491.03;5097451;28;20036;-65
2023/07/06 00:39:12;;;;;;;1.05;0.95;;;;;;;19.92;83.86;99493.81;5097452;28;20048;-65
2023/07/06 00:41:43;;;;;;;0.82;0.82;;;;;;;19.82;84.16;99492.53;5097322;28;20566;-65
2023/07/06 00:44:38;;;;;;;1.15;1.02;;;;;;;19.92;84.35;99492.09;5096152;28;20504;-65
2023/07/06 00:47:11;;;;;;;0.40;0.40;;;;;;;19.96;84.29;99495.41;5097165;28;20060;-66
2023/07/06 00:49:41;;;;;;;0.60;0.60;;;;;;;19.92;84.25;99499.84;5097280;28;20048;-66
2023/07/06 00:52:11;;;;;;;5.57;0.65;;;;;;;19.92;84.45;99499.84;5097475;28;20486;-65
2023/07/06 00:54:42;;;;;;;0.50;0.50;;;;;;;19.93;84.18;99505.88;5095877;28;20048;-65
2023/07/06 00:57:14;;;;;;;0.50;0.50;;;;;;;19.96;84.17;99506.59;5096167;28;20109;-65
2023/07/06 00:59:44;;;;;;;0.77;0.73;;;;;;;19.96;83.83;99509.16;5097091;28;20055;-65
2023/07/06 01:02:16;;;;;;;0.50;0.50;;;;;;;19.94;83.83;99511.00;5096974;28;20513;-65
2023/07/06 01:04:46;;;;;;;1.50;1.33;;;;;;;19.90;83.63;99506.84;5096896;28;20048;-65
2023/07/06 01:07:20;;;;;;;4.22;0.75;;;;;;;19.81;83.76;99503.78;5096888;28;20051;-65
2023/07/06 01:09:52;;;;;;;0.50;0.50;;;;;;;19.81;83.82;99502.06;5095678;28;20051;-65
2023/07/06 01:12:25;;;;;;;0.50;0.50;;;;;;;19.79;83.72;99498.69;5095929;28;20513;-65
2023/07/06 01:14:55;;;;;;;0.88;0.82;;;;;;;19.76;83.65;99493.63;5097087;28;20139;-65
2023/07/06 01:17:33;;;;;;;0.75;0.73;;;;;;;19.75;84.12;99497.09;5096840;28;20040;-65
2023/07/06 01:20:21;;;;;;;1.05;1.00;;;;;;;19.76;84.10;99504.00;5096733;28;20044;-65
2023/07/06 01:23:17;;;;;;;0.85;0.85;;;;;;;19.71;84.26;99505.91;5095460;28;20127;-65
2023/07/06 01:26:14;;;;;;;0.50;0.50;;;;;;;19.72;84.42;99509.34;5093278;28;20054;-65
2023/07/06 01:29:04;;;;;;;0.60;0.60;;;;;;;19.79;84.40;99503.03;5096228;28;20052;-66
2023/07/06 01:31:42;;;;;;;0.60;0.60;;;;;;;19.70;84.28;99512.00;5096557;28;20064;-65
2023/07/06 01:34:21;;;;;;;0.47;0.47;;;;;;;19.65;84.15;99520.88;5095260;28;20043;-65
2023/07/06 01:36:57;;;;;;;0.93;0.70;;;;;;;19.61;83.75;99520.13;5096118;28;20101;-66
2023/07/06 01:39:27;;;;;;;0.45;0.45;;;;;;;19.43;83.93;99526.06;5095159;28;20036;-65
2023/07/06 01:42:29;;;;;;;1.05;0.95;;;;;;;19.36;84.07;99524.63;5096292;28;20047;-65
2023/07/06 01:45:05;;;;;;;0.55;0.55;;;;;;;19.34;84.05;99523.75;5091045;28;20070;-65
2023/07/06 01:47:40;;;;;;;1.65;0.75;;;;;;;19.28;83.82;99526.59;5094862;28;20475;-65
2023/07/06 01:50:12;;;;;;;0.55;0.55;;;;;;;19.06;83.84;99520.56;5094990;28;20122;-66
2023/07/06 01:52:57;;;;;;;0.90;0.90;;;;;;;18.91;84.38;99526.31;5094926;28;20047;-65
2023/07/06 01:55:31;;;;;;;0.70;0.70;;;;;;;18.79;84.65;99532.75;5096012;28;20076;-67
2023/07/06 01:58:10;;;;;;;0.60;0.60;;;;;;;18.79;84.90;99542.28;5094743;28;20048;-65
2023/07/06 02:00:46;;;;;;;0.65;0.65;;;;;;;18.79;84.90;99539.69;5094846;28;20040;-65
2023/07/06 02:03:17;;;;;;;0.75;0.68;;;;;;;18.71;85.01;99539.97;5095839;28;20098;-65
2023/07/06 02:05:47;;;;;;;0.40;0.40;;;;;;;18.67;85.16;99539.22;5094637;28;20055;-65
2023/07/06 02:08:18;;;;;;;0.70;0.70;;;;;;;18.63;85.24;99537.66;5096009;28;20040;-66
2023/07/06 02:10:47;;;;;;;3.90;1.08;;;;;;;18.65;85.59;99525.50;5094490;28;20052;-66
2023/07/06 02:13:17;;;;;;;0.50;0.50;;;;;;;18.73;85.67;99528.69;5094794;28;20040;-65
2023/07/06 02:15:47;;;;;;;0.70;0.70;;;;;;;18.78;85.47;99520.75;5095743;28;20037;-65
2023/07/06 02:18:18;;;;;;;0.40;0.40;;;;;;;18.82;85.55;99511.13;5094203;28;20059;-66
2023/07/06 02:20:47;;;;;;;1.35;0.80;;;;;;;18.80;85.12;99513.78;5094353;28;20401;-66
2023/07/06 02:23:16;;;;;;;0.60;0.60;;;;;;;18.88;84.90;99508.31;5095636;28;20040;-65
2023/07/06 02:25:44;;;;;;;0.40;0.40;;;;;;;18.82;84.79;99519.72;5095716;28;20044;-66
2023/07/06 02:28:13;;;;;;;0.97;0.80;;;;;;;18.72;84.58;99531.28;5095051;28;20044;-66
2023/07/06 02:30:42;;;;;;;5.63;0.90;;;;;;;18.57;84.69;99532.69;5095308;28;20352;-66
2023/07/06 02:33:12;;;;;;;1.00;0.80;;;;;;;18.57;84.93;99532.69;5095253;28;20123;-67
2023/07/06 02:35:45;;;;;;;0.63;0.63;;;;;;;18.66;84.69;99529.81;5095481;28;20454;-67
2023/07/06 02:38:17;;;;;;;1.73;1.05;;;;;;;18.69;84.40;99521.91;5095165;28;20131;-67
2023/07/06 02:40:46;;;;;;;0.60;0.55;;;;;;;18.60;84.31;99532.59;5095082;28;20052;-66
2023/07/06 02:43:15;;;;;;;0.60;0.60;;;;;;;18.46;84.41;99529.66;5095264;28;20081;-65
2023/07/06 02:45:47;;;;;;;0.50;0.50;;;;;;;18.44;84.36;99521.06;5093818;28;20040;-65
2023/07/06 02:48:17;;;;;;;0.57;0.57;;;;;;;18.29;84.39;99525.91;5093389;28;20059;-65
2023/07/06 02:50:50;;;;;;;0.98;0.70;;;;;;;18.14;84.97;99529.88;5094877;28;20143;-66
2023/07/06 02:53:20;;;;;;;0.80;0.80;;;;;;;18.11;84.98;99532.56;5094879;28;20048;-65
2023/07/06 02:55:51;;;;;;;1.25;0.75;;;;;;;18.11;85.54;99530.00;5095096;28;20512;-65
2023/07/06 02:58:20;;;;;;;1.02;0.93;;;;;;;18.15;85.60;99535.88;5094735;28;20502;-66
2023/07/06 03:00:50;;;;;;;3.13;1.23;;;;;;;18.08;85.64;99533.53;5093447;28;20051;-66
2023/07/06 03:03:19;;;;;;;0.95;0.85;;;;;;;18.15;85.56;99528.97;5093758;28;20113;-65
2023/07/06 03:05:50;;;;;;;2.70;1.17;;;;;;;18.13;85.91;99523.03;5093732;28;20044;-66
2023/07/06 03:08:19;;;;;;;0.75;0.75;;;;;;;18.16;85.87;99530.69;5093443;28;20322;-66
2023/07/06 03:10:48;;;;;;;1.05;0.95;;;;;;;18.14;86.08;99531.63;5093564;28;20118;-66
2023/07/06 03:13:17;;;;;;;1.38;1.13;;;;;;;18.13;86.25;99535.09;5094492;28;20570;-66
2023/07/06 03:15:51;;;;;;;1.13;1.00;;;;;;;18.24;86.77;99538.16;5094552;28;20097;-65
2023/07/06 03:18:20;;;;;;;1.30;0.88;;;;;;;18.27;86.90;99532.88;5093243;28;20048;-65
2023/07/06 03:20:50;;;;;;;0.55;0.55;;;;;;;18.30;86.94;99546.56;5094685;28;20112;-66
2023/07/06 03:23:21;;;;;;;0.73;0.73;;;;;;;18.25;86.82;99548.44;5093101;28;20048;-66
2023/07/06 03:25:52;;;;;;;1.52;1.35;;;;;;;18.25;87.24;99551.03;5094548;28;20413;-66
2023/07/06 03:28:24;;;;;;;18.52;1.27;;;;;;;18.34;87.37;99550.72;5093874;28;20052;-66
2023/07/06 03:30:57;;;;;;;0.70;0.70;;;;;;;18.35;87.48;99552.41;5094562;28;20048;-66
2023/07/06 03:33:26;;;;;;;0.65;0.65;;;;;;;18.34;87.53;99550.72;5092992;28;20051;-66
2023/07/06 03:35:58;;;;;;;0.68;0.68;;;;;;;18.34;87.55;99550.72;5093421;28;20119;-66
2023/07/06 03:38:29;;;;;;;0.57;0.57;;;;;;;18.48;87.50;99556.28;5093157;28;20130;-66
2023/07/06 03:41:03;;;;;;;0.75;0.75;;;;;;;18.55;87.46;99544.81;5092859;28;20065;-66
2023/07/06 03:43:32;;;;;;;0.63;0.63;;;;;;;18.63;87.52;99558.34;5094183;28;20559;-66
2023/07/06 03:46:03;;;;;;;1.25;1.15;;;;;;;18.73;87.29;99554.53;5092806;28;20036;-66
2023/07/06 03:48:32;;;;;;;1.27;1.17;;;;;;;18.78;86.94;99563.84;5093965;28;20044;-65
2023/07/06 03:51:05;;;;;;;1.20;0.90;;;;;;;18.83;86.76;99559.38;5093828;28;20040;-66
2023/07/06 03:53:35;;;;;;;1.35;1.23;;;;;;;18.86;86.54;99560.09;5094360;28;20036;-65
2023/07/06 03:56:05;;;;;;;0.65;0.60;;;;;;;18.81;86.54;99561.16;5093771;28;20086;-66
2023/07/06 03:58:38;;;;;;;0.90;0.60;;;;;;;18.91;86.59;99567.72;5094058;28;20127;-65
2023/07/06 04:01:08;;;;;;;0.60;0.60;;;;;;;18.96;86.45;99551.09;5092850;28;20052;-65
2023/07/06 04:03:37;;;;;;;0.88;0.88;;;;;;;19.00;86.50;99546.66;5093895;28;20554;-65
2023/07/06 04:06:08;;;;;;;1.67;1.05;;;;;;;19.02;86.31;99529.34;5093679;28;20055;-65
2023/07/06 04:08:37;;;;;;;1.13;1.00;;;;;;;19.02;86.19;99519.00;5093689;28;20219;-65
2023/07/06 04:11:08;;;;;;;1.73;0.55;;;;;;;19.05;86.18;99519.72;5093640;28;20118;-66
2023/07/06 04:13:37;;;;;;;1.70;1.10;;;;;;;19.12;86.21;99528.09;5092710;28;20559;-65
2023/07/06 04:16:06;;;;;;;0.60;0.60;;;;;;;19.21;86.05;99535.50;5093595;28;20040;-66
2023/07/06 04:18:35;;;;;;;0.50;0.50;;;;;;;19.25;86.20;99542.25;5094688;28;20458;-66
2023/07/06 04:21:04;;;;;;;1.70;1.33;;;;;;;19.30;86.29;99561.03;5093764;28;20050;-66
2023/07/06 04:23:35;;;;;;;1.73;1.35;;;;;;;19.44;86.16;99569.16;5093805;28;20506;-66
2023/07/06 04:26:05;;;;;;;0.90;0.82;;;;;;;19.55;86.06;99567.00;5093423;28;20089;-65
2023/07/06 04:28:38;;;;;;;1.55;0.70;;;;;;;19.63;85.70;99574.44;5092722;28;20102;-65
2023/07/06 04:31:07;;;;;;;0.68;0.68;;;;;;;19.67;85.02;99582.06;5093578;28;20134;-66
2023/07/06 04:33:36;;;;;;;0.93;0.60;;;;;;;19.70;84.32;99579.31;5093659;28;20066;-65
2023/07/06 04:36:06;;;;;;;0.80;0.77;;;;;;;19.84;83.89;99586.56;5092180;28;20047;-65
2023/07/06 04:38:36;;;;;;;;;;;;;;;19.86;83.56;99593.38;5094001;28;20131;-66
2023/07/06 04:41:06;;;;;;;0.73;0.63;;;;;;;19.82;82.97;99596.97;5092422;28;19920;-66
2023/07/06 04:43:34;;;;;;;;;;;;;;;19.92;82.75;99593.13;5093681;28;20379;-66
2023/07/06 04:46:03;;;;;;;0.63;0.63;;;;;;;20.02;82.38;99598.78;5093595;28;19920;-66
2023/07/06 04:48:33;;;;;;;0.88;0.88;;;;;;;20.02;82.26;99589.25;5093593;28;20492;-66
2023/07/06 04:51:01;;;;;;;;;;;;;;;20.08;82.07;99583.00;5093685;28;20040;-66
2023/07/06 04:53:32;;;;;;;0.50;0.50;;;;;;;20.15;81.84;99589.63;5093787;28;19920;-66
2023/07/06 04:56:03;;;;;;;19.23;1.33;;;;;;;20.20;81.88;99597.19;5093106;28;20063;-66
2023/07/06 04:58:32;;;;;;;3.33;1.00;;;;;;;20.18;81.46;99593.81;5093861;28;20134;-66
2023/07/06 05:01:05;;;;;;;0.60;0.60;;;;;;;20.11;81.41;99597.59;5093185;28;20501;-66
2023/07/06 05:03:35;;;;;;;6.18;1.38;;;;;;;20.08;81.68;99599.38;5093501;28;20276;-67
2023/07/06 05:06:07;;;;;;;2.20;0.95;;;;;;;20.04;81.81;99602.16;5093037;28;20082;-65
2023/07/06 05:08:36;;;;;;;0.65;0.65;;;;;;;19.80;82.08;99593.59;5093173;28;20098;-66
2023/07/06 05:11:07;;;;;;;0.83;0.83;;;;;;;19.82;82.67;99596.97;5093120;28;20129;-67
2023/07/06 05:13:36;;;;;;;1.33;1.23;;;;;;;19.84;82.65;99602.94;5097114;28;20052;-67
2023/07/06 05:16:06;;;;;;;0.95;0.95;;;;;;;19.88;82.44;99596.75;5097016;28;20074;-67
2023/07/06 05:18:35;;;;;;;1.67;1.07;;;;;;;19.85;82.46;99598.59;5096927;28;20040;-67
2023/07/06 05:21:04;;;;;;;1.20;1.10;;;;;;;19.87;82.60;99594.19;5096701;28;20330;-67
2023/07/06 05:23:34;;;;;;;0.73;0.73;;;;;;;19.93;82.64;99592.22;5096957;28;20070;-67
2023/07/06 05:26:03;;;;;;;0.90;0.85;;;;;;;20.03;82.50;99595.28;5096778;28;20131;-67
2023/07/06 05:28:34;;;;;;;1.15;0.90;;;;;;;20.08;82.73;99602.88;5096614;28;20044;-67
2023/07/06 05:31:04;;;;;;;2.83;2.30;;;;;;;20.13;83.29;99612.13;5096771;28;20587;-67
2023/07/06 05:33:34;;;;;;;0.90;0.90;;;;;;;20.12;83.25;99612.19;5096715;28;20052;-67
2023/07/06 05:36:03;;;;;;;2.78;1.63;;;;;;;20.14;83.20;99619.00;5096397;28;20047;-67
2023/07/06 05:38:32;;;;;;;4.25;1.10;;;;;;;20.25;83.46;99614.25;5096361;28;20044;-67
2023/07/06 05:41:03;;;;;;;3.38;1.73;;;;;;;20.29;83.64;99617.59;5096586;28;20421;-68
2023/07/06 05:43:33;;;;;;;0.75;0.75;;;;;;;20.32;83.72;99622.66;5096243;28;20097;-67
2023/07/06 05:46:02;;;;;;;0.57;0.57;;;;;;;20.38;83.65;99617.19;5096161;28;20047;-67
2023/07/06 05:48:31;;;;;;;3.13;2.33;;;;;;;20.45;83.07;99613.44;5096129;28;20063;-67
2023/07/06 05:51:00;;;;;;;1.70;1.35;;;;;;;20.52;82.80;99602.75;5096609;28;20028;-67
2023/07/06 05:53:29;;;;;;;0.80;0.80;;;;;;;20.61;82.11;99598.94;5096011;28;20123;-66
2023/07/06 05:55:59;;;;;;;1.85;1.30;;;;;;;20.73;81.95;99602.75;5095919;28;20486;-66
2023/07/06 05:58:28;;;;;;;1.60;1.30;;;;;;;20.83;81.43;99591.88;5096042;28;20093;-66
2023/07/06 06:00:59;;;;;;;0.73;0.73;;;;;;;21.01;81.06;99593.69;5095870;28;20537;-66
2023/07/06 06:03:29;;;;;;;1.83;1.20;;;;;;;21.12;80.48;99596.66;5096166;28;20044;-65
2023/07/06 06:05:58;;;;;;;;;;;;;;;21.14;79.00;99599.22;5096310;28;20135;-65
2023/07/06 06:08:29;;;;;;;1.30;0.90;;;;;;;21.14;77.54;99600.03;5094517;28;20002;-65
2023/07/06 06:11:00;;;;;;;1.95;1.65;;;;;;;21.18;76.54;99604.19;5095697;28;20040;-64
2023/07/06 06:13:30;;;;;;;0.85;0.85;;;;;;;21.22;75.80;99608.31;5095935;28;20044;-64
2023/07/06 06:16:00;;;;;;;1.48;1.38;;;;;;;21.26;75.28;99609.84;5096119;28;20040;-64
2023/07/06 06:18:29;;;;;;;0.70;0.70;;;;;;;21.27;74.84;99601.16;5095901;28;20047;-63
2023/07/06 06:20:58;;;;;;;1.25;1.10;;;;;;;21.29;74.31;99599.34;5095402;28;20509;-64
2023/07/06 06:23:27;;;;;;;1.42;1.33;;;;;;;21.31;73.44;99592.31;5094393;28;20086;-64
2023/07/06 06:25:56;;;;;;;1.20;1.07;;;;;;;21.35;72.68;99609.44;5095607;28;20400;-64
2023/07/06 06:28:26;;;;;;;0.85;0.82;;;;;;;21.42;72.52;99609.16;5095154;28;20307;-64
2023/07/06 06:30:55;;;;;;;1.13;0.98;;;;;;;21.43;72.20;99600.47;5094213;28;20486;-63
2023/07/06 06:33:25;;;;;;;3.10;1.35;;;;;;;21.44;71.65;99590.00;5095472;28;20040;-63
2023/07/06 06:35:58;;;;;;;0.55;0.55;;;;;;;21.50;71.53;99591.50;5094112;28;20510;-64
2023/07/06 06:38:28;;;;;;;0.45;0.45;;;;;;;21.51;71.05;99604.41;5095146;28;20098;-64
2023/07/06 06:40:59;;;;;;;0.70;0.70;;;;;;;21.46;70.40;99600.31;5095431;28;20036;-63
2023/07/06 06:43:28;;;;;;;0.50;0.50;;;;;;;21.52;70.31;99610.44;5095415;28;20281;-64
2023/07/06 06:45:57;;;;;;;0.50;0.50;;;;;;;21.57;70.07;99611.06;5095053;28;20069;-64
2023/07/06 06:48:28;;;;;;;;;;;;;;;21.56;69.79;99609.38;5095303;28;20269;-63
2023/07/06 06:50:57;;;;;;;0.60;0.60;;;;;;;21.51;69.20;99608.75;5095271;28;20357;-64
2023/07/06 06:53:26;;;;;;;0.70;0.70;;;;;;;21.55;69.12;99616.31;5094876;28;20123;-63
2023/07/06 06:55:55;;;;;;;2.08;0.80;;;;;;;21.54;69.06;99619.00;5095135;28;20044;-64
2023/07/06 06:58:25;;;;;;;0.65;0.65;;;;;;;21.49;68.59;99605.38;5094760;28;20048;-64
2023/07/06 07:00:58;;;;;;;0.80;0.80;;;;;;;21.45;68.02;99603.84;5094755;28;20054;-63
2023/07/06 07:03:29;;;;;;;1.38;0.90;;;;;;;21.38;67.73;99601.50;5094769;28;20044;-63
2023/07/06 07:06:01;;;;;;;1.08;0.70;;;;;;;21.38;67.27;99603.25;5094861;28;20039;-64
2023/07/06 07:08:30;;;;;;;0.65;0.65;;;;;;;21.35;67.15;99608.63;5094491;28;20118;-63
2023/07/06 07:10:59;;;;;;;0.50;0.50;;;;;;;21.28;66.48;99613.22;5094846;28;20093;-63
2023/07/06 07:13:49;;;;;;;1.40;1.20;;;;;;;21.25;66.33;99612.53;5094557;28;20039;-63
2023/07/06 07:16:18;;;;;;;;;;;;;;;21.21;66.00;99616.19;5095126;28;20044;-63
2023/07/06 07:18:49;;;;;;;0.55;0.52;;;;;;;21.19;65.90;99624.03;5094495;28;19920;-63
2023/07/06 07:21:19;;;;;;;0.75;0.63;;;;;;;21.16;65.65;99629.34;5094699;28;20105;-63
2023/07/06 07:23:50;;;;;;;0.60;0.60;;;;;;;21.18;65.46;99627.56;5094363;28;20075;-64
2023/07/06 07:26:22;;;;;;;0.40;0.40;;;;;;;21.20;65.22;99625.72;5093083;28;20048;-63
2023/07/06 07:28:51;;;;;;;10.05;2.35;;;;;;;21.21;64.88;99624.81;5110355;28;20055;-63
2023/07/06 07:31:22;;;;;;;3.65;1.02;;;;;;;21.18;64.80;99611.97;5114879;28;20056;-63
2023/07/06 07:33:52;;;;;;;2.95;0.60;;;;;;;21.17;64.53;99610.28;5114772;28;20446;-63
2023/07/06 07:36:22;;;;;;;0.85;0.85;;;;;;;21.16;64.24;99613.78;5114694;28;20039;-63
2023/07/06 07:38:53;;;;;;;3.05;1.35;;;;;;;21.22;64.25;99612.66;5114302;28;20040;-63
2023/07/06 07:41:22;;;;;;;0.40;0.40;;;;;;;21.20;64.30;99614.50;5114365;28;20051;-65
2023/07/06 07:43:51;;;;;;;1.02;0.60;;;;;;;21.25;64.11;99618.59;5114582;28;20401;-63
2023/07/06 07:46:22;;;;;;;0.75;0.68;;;;;;;21.29;64.31;99625.31;5114323;28;20118;-63
2023/07/06 07:48:53;;;;;;;0.40;0.40;;;;;;;21.32;64.10;99629.53;5114317;28;20047;-64
2023/07/06 07:51:26;;;;;;;0.88;0.88;;;;;;;21.32;63.74;99630.38;5114326;28;20051;-62
2023/07/06 07:53:57;;;;;;;1.13;1.02;;;;;;;21.36;63.19;99631.91;5114228;28;20101;-64
2023/07/06 07:56:28;;;;;;;0.80;0.73;;;;;;;21.44;62.65;99628.13;5113223;28;20148;-62
2023/07/06 07:58:57;;;;;;;0.55;0.55;;;;;;;21.50;62.12;99617.47;5114166;28;20043;-61
2023/07/06 08:01:26;;;;;;;0.57;0.57;;;;;;;21.57;61.56;99624.06;5114310;28;20042;-61
2023/07/06 08:03:57;;;;;;;0.45;0.45;;;;;;;21.63;61.45;99621.16;5114534;28;20044;-62
2023/07/06 08:06:26;;;;;;;0.55;0.55;;;;;;;21.66;60.65;99623.63;5114044;28;20050;-61
2023/07/06 08:08:55;;;;;;;0.68;0.65;;;;;;;21.67;60.18;99620.09;5114249;28;20056;-61
2023/07/06 08:11:25;;;;;;;0.57;0.57;;;;;;;21.67;59.86;99620.94;5114296;28;20066;-64
2023/07/06 08:13:56;;;;;;;1.23;1.13;;;;;;;21.68;59.41;99619.19;5113915;28;20051;-63
2023/07/06 08:16:26;;;;;;;0.55;0.55;;;;;;;21.71;59.35;99626.84;5114302;28;20040;-63
2023/07/06 08:18:56;;;;;;;0.50;0.50;;;;;;;21.73;59.07;99630.22;5114172;28;20057;-63
2023/07/06 08:21:45;;;;;;;0.40;0.40;;;;;;;21.72;58.77;99633.72;5114083;28;20044;-63
2023/07/06 08:24:36;;;;;;;0.75;0.75;;;;;;;21.74;58.72;99632.72;5114016;28;20051;-64
2023/07/06 08:27:05;;;;;;;9.18;2.72;;;;;;;21.76;58.57;99630.91;5113929;28;20130;-63
2023/07/06 08:29:34;;;;;;;0.40;0.40;;;;;;;21.79;58.20;99629.91;5113668;28;20139;-63
2023/07/06 08:32:04;;;;;;;0.35;0.35;;;;;;;21.81;57.92;99638.50;5109726;28;20051;-64
2023/07/06 08:34:35;;;;;;;;;;;;;;;21.81;57.84;99639.31;5101592;28;20067;-65
2023/07/06 08:37:04;;;;;;;0.40;0.40;;;;;;;21.85;57.73;99635.72;5105140;28;19924;-64
2023/07/06 08:39:33;;;;;;;1.83;0.77;;;;;;;21.83;57.44;99641.88;5101173;28;20042;-63
2023/07/06 08:42:02;;;;;;;0.52;0.52;;;;;;;21.86;57.18;99637.38;5094049;28;20153;-61
2023/07/06 08:44:31;;;;;;;5.18;1.48;;;;;;;21.89;57.11;99641.59;5092487;28;20064;-63
2023/07/06 08:47:00;;;;;;;0.47;0.47;;;;;;;21.91;57.54;99642.38;5103524;28;20382;-63
2023/07/06 08:49:32;;;;;;;0.50;0.50;;;;;;;21.94;57.32;99639.63;5106120;28;20070;-64
2023/07/06 08:52:06;;;;;;;0.50;0.50;;;;;;;21.95;57.30;99646.53;5105240;28;20039;-64
2023/07/06 08:54:38;;;;;;;0.80;0.80;;;;;;;21.95;57.25;99651.72;5111346;28;20431;-63
2023/07/06 08:57:15;;;;;;;0.55;0.55;;;;;;;21.94;57.02;99645.66;5117528;28;20100;-63
2023/07/06 08:59:48;;;;;;;1.45;1.05;;;;;;;21.97;56.41;99662.88;5117776;27;20430;-64
2023/07/06 09:02:19;;;;;;;1.35;0.95;;;;;;;22.03;56.60;99659.97;5117409;28;20048;-63
2023/07/06 09:04:51;;;;;;;0.50;0.50;;;;;;;22.07;56.73;99666.75;5117353;28;20501;-63
2023/07/06 09:07:26;;;;;;;1.27;1.00;;;;;;;22.12;56.79;99669.97;5117555;28;20059;-63
2023/07/06 09:09:57;;;;;;;0.52;0.50;;;;;;;22.13;57.05;99671.63;5117429;28;20493;-63
2023/07/06 09:12:46;;;;;;;2.70;2.50;;;;;;;22.16;57.00;99666.28;5117785;28;20044;-63
2023/07/06 09:15:19;;;;;;;1.95;1.25;;;;;;;22.16;56.31;99663.69;5117169;28;20074;-63
2023/07/06 09:17:51;;;;;;;0.50;0.50;;;;;;;22.23;55.98;99657.28;5117218;28;20084;-63
2023/07/06 09:20:22;;;;;;;6.20;1.88;;;;;;;22.34;55.65;99657.56;5117510;28;20428;-63
2023/07/06 09:22:53;;;;;;;1.83;1.13;;;;;;;22.43;55.48;99659.75;5117036;28;20046;-63
2023/07/06 09:25:28;;;;;;;0.75;0.70;;;;;;;22.56;55.14;99666.00;5117094;28;20096;-63
2023/07/06 09:27:59;;;;;;;0.50;0.50;;;;;;;22.62;54.96;99668.38;5117341;28;20478;-63
2023/07/06 09:30:30;;;;;;;0.80;0.75;;;;;;;22.65;54.27;99665.59;5116841;28;20044;-63
2023/07/06 09:33:18;;;;;;;0.47;0.47;;;;;;;22.74;54.61;99669.50;5117258;28;20074;-63
2023/07/06 09:35:52;;;;;;;1.13;1.02;;;;;;;22.82;53.95;99674.31;5116879;28;20048;-63
2023/07/06 09:38:25;;;;;;;0.95;0.90;;;;;;;22.85;53.38;99681.94;5116772;28;20048;-63
2023/07/06 09:40:55;;;;;;;3.65;0.77;;;;;;;22.91;52.82;99684.25;5116679;28;20130;-63
2023/07/06 09:43:27;;;;;;;1.30;1.20;;;;;;;22.98;52.47;99680.44;5115661;28;20089;-63
2023/07/06 09:45:59;;;;;;;0.60;0.60;;;;;;;23.07;52.27;99667.78;5116764;28;20044;-63
2023/07/06 09:48:36;;;;;;;1.85;0.63;;;;;;;23.21;51.69;99674.84;5116533;28;20043;-63
2023/07/06 09:51:13;;;;;;;0.68;0.68;;;;;;;23.31;51.25;99670.84;5117197;27;20116;-63
2023/07/06 09:53:48;;;;;;;0.47;0.47;;;;;;;23.41;51.32;99666.03;5116653;28;20044;-63
2023/07/06 09:56:17;;;;;;;0.55;0.50;;;;;;;23.68;51.65;99670.56;5116411;28;20055;-63
2023/07/06 09:58:49;;;;;;;1.45;1.35;;;;;;;23.86;50.96;99669.59;5116406;28;20052;-63
2023/07/06 10:01:34;;;;;;;0.50;0.50;;;;;;;23.98;50.85;99671.53;5116550;28;20071;-63
2023/07/06 10:04:21;;;;;;;0.63;0.63;;;;;;;24.14;50.17;99665.50;5115325;28;20043;-63
2023/07/06 10:07:05;;;;;;;0.50;0.50;;;;;;;24.19;49.92;99676.47;5116452;28;20561;-64
2023/07/06 10:09:40;;;;;;;0.60;0.60;;;;;;;24.15;49.48;99668.00;5116411;28;20485;-63
2023/07/06 10:12:19;;;;;;;0.60;0.60;;;;;;;24.16;50.01;99671.47;5116228;28;20118;-64
2023/07/06 10:14:51;;;;;;;0.50;0.50;;;;;;;24.14;50.04;99673.31;5116075;27;20097;-63
2023/07/06 10:17:36;;;;;;;0.60;0.60;;;;;;;24.30;49.98;99679.34;5116632;28;20138;-63
2023/07/06 10:20:17;;;;;;;0.63;0.55;;;;;;;24.60;49.75;99672.34;5115952;28;20059;-64
2023/07/06 10:23:05;;;;;;;0.57;0.57;;;;;;;24.80;48.90;99674.69;5115883;28;20048;-63
2023/07/06 10:25:43;;;;;;;0.55;0.55;;;;;;;24.88;48.92;99677.69;5116162;28;20043;-63
2023/07/06 10:28:18;;;;;;;0.40;0.40;;;;;;;25.02;48.10;99675.09;5115460;28;20047;-64
2023/07/06 10:30:51;;;;;;;0.63;0.60;;;;;;;25.17;47.58;99673.34;5115786;28;20096;-64
2023/07/06 10:33:27;;;;;;;0.85;0.85;;;;;;;25.32;47.56;99677.59;5115696;28;20078;-64
2023/07/06 10:35:58;;;;;;;0.52;0.52;;;;;;;25.61;47.80;99683.69;5116298;28;20039;-64
2023/07/06 10:38:27;;;;;;;0.60;0.60;;;;;;;25.71;46.77;99674.34;5115918;28;20048;-64
2023/07/06 10:41:22;;;;;;;0.70;0.70;;;;;;;25.70;46.58;99672.66;5116044;28;20397;-64
2023/07/06 10:43:59;;;;;;;3.97;0.80;;;;;;;25.94;46.16;99665.88;5115882;28;20042;-63
2023/07/06 10:46:33;;;;;;;1.00;0.93;;;;;;;26.16;45.43;99660.97;5115786;28;20116;-65
2023/07/06 10:49:18;;;;;;;0.98;0.90;;;;;;;26.40;45.61;99658.53;5115387;27;20036;-64
2023/07/06 10:51:50;;;;;;;6.40;1.77;;;;;;;26.30;45.11;99658.28;5115818;28;20036;-63
2023/07/06 10:54:24;;;;;;;1.25;0.80;;;;;;;26.28;44.91;99661.94;5115547;28;20439;-66
2023/07/06 10:57:02;;;;;;;1.10;1.00;;;;;;;26.29;44.57;99664.47;5115246;28;20101;-64
2023/07/06 10:59:38;;;;;;;0.50;0.50;;;;;;;26.35;44.01;99655.38;5115689;28;20102;-63
2023/07/06 11:02:20;;;;;;;0.50;0.50;;;;;;;26.56;44.98;99649.53;5115090;28;20043;-64
2023/07/06 11:05:08;;;;;;;1.42;0.85;;;;;;;26.86;45.27;99661.56;5115210;28;20069;-64
2023/07/06 11:07:46;;;;;;;1.25;0.60;;;;;;;26.83;43.71;99653.91;5115221;28;20061;-64
2023/07/06 11:10:31;;;;;;;1.00;0.90;;;;;;;26.81;44.10;99663.66;5114636;28;20036;-65
2023/07/06 11:13:18;;;;;;;5.07;1.27;;;;;;;26.61;43.41;99663.19;5115330;28;20051;-64
2023/07/06 11:15:59;;;;;;;0.50;0.50;;;;;;;26.46;43.66;99653.75;5113662;28;20464;-64
2023/07/06 11:18:39;;;;;;;1.88;0.95;;;;;;;26.35;43.83;99652.75;5114930;28;20043;-64
2023/07/06 11:21:27;;;;;;;0.75;0.60;;;;;;;26.19;44.24;99654.69;5114585;28;20047;-64
2023/07/06 11:24:06;;;;;;;1.30;1.13;;;;;;;25.95;43.68;99651.84;5114896;28;20507;-65
2023/07/06 11:26:42;;;;;;;1.33;1.23;;;;;;;25.86;44.19;99657.69;5115008;28;20050;-65
2023/07/06 11:29:12;;;;;;;0.63;0.63;;;;;;;25.83;44.94;99657.88;5114449;28;20063;-64
2023/07/06 11:31:59;;;;;;;1.13;1.02;;;;;;;25.79;44.94;99651.16;5115344;28;20028;-64
2023/07/06 11:34:37;;;;;;;0.47;0.47;;;;;;;26.02;44.61;99661.00;5114878;28;20397;-64
2023/07/06 11:37:25;;;;;;;0.77;0.75;;;;;;;26.27;44.55;99655.88;5114731;28;20039;-66
2023/07/06 11:40:06;;;;;;;0.98;0.88;;;;;;;26.06;44.34;99659.84;5114532;28;20393;-64
2023/07/06 11:42:53;;;;;;;0.93;0.70;;;;;;;26.01;44.18;99650.63;5114789;28;20405;-63
2023/07/06 11:45:31;;;;;;;1.67;1.02;;;;;;;26.39;44.60;99660.31;5114667;28;20043;-64
2023/07/06 11:48:19;;;;;;;0.47;0.47;;;;;;;26.61;43.35;99657.09;5114657;28;20070;-63
2023/07/06 11:50:50;;;;;;;0.93;0.70;;;;;;;26.82;43.05;99660.94;5114582;28;20076;-64
2023/07/06 11:53:42;;;;;;;0.47;0.47;;;;;;;26.90;42.80;99656.00;5114323;28;20063;-64
2023/07/06 11:56:32;;;;;;;1.13;1.02;;;;;;;27.14;42.39;99661.34;5114258;28;20051;-64
2023/07/06 11:59:07;;;;;;;5.07;0.93;;;;;;;27.14;41.82;99661.34;5113947;28;20051;-64
2023/07/06 12:01:45;;;;;;;0.80;0.75;;;;;;;27.25;41.93;99656.22;5114015;28;20055;-65